sensor_id;sensor_type;location;lat;lon;timestamp;P1;durP1;ratioP1;P2;durP2;ratioP2
42282;SDS011;28237;47.954;21.730;2023-07-31T00:02:13;2.20;;;2.00;;
42282;SDS011;28237;47.954;21.730;2023-07-31T00:04:38;1.83;;;1.73;;
42282;SDS011;28237;47.954;21.730;2023-07-31T00:07:03;2.13;;;1.60;;
42282;SDS011;28237;47.954;21.730;2023-07-31T00:09:31;1.77;;;1.52;;
42282;SDS011;28237;47.954;21.730;2023-07-31T00:11:56;2.17;;;1.80;;
42282;SDS011;28237;47.954;21.730;2023-07-31T00:14:21;2.70;;;1.73;;
42282;SDS011;28237;47.954;21.730;2023-07-31T00:16:47;2.43;;;2.03;;
42282;SDS011;28237;47.954;21.730;2023-07-31T00:19:12;1.90;;;1.60;;
42282;SDS011;28237;47.954;21.730;2023-07-31T00:21:37;2.60;;;2.00;;
42282;SDS011;28237;47.954;21.730;2023-07-31T00:24:03;2.60;;;2.40;;
42282;SDS011;28237;47.954;21.730;2023-07-31T00:26:28;2.42;;;2.22;;
42282;SDS011;28237;47.954;21.730;2023-07-31T00:28:56;5.63;;;2.50;;
42282;SDS011;28237;47.954;21.730;2023-07-31T00:31:21;2.47;;;2.20;;
42282;SDS011;28237;47.954;21.730;2023-07-31T00:33:46;2.50;;;2.30;;
42282;SDS011;28237;47.954;21.730;2023-07-31T00:36:11;2.43;;;2.23;;
42282;SDS011;28237;47.954;21.730;2023-07-31T00:38:37;2.47;;;2.27;;
42282;SDS011;28237;47.954;21.730;2023-07-31T00:41:02;2.27;;;2.07;;
42282;SDS011;28237;47.954;21.730;2023-07-31T00:43:27;3.77;;;2.50;;
42282;SDS011;28237;47.954;21.730;2023-07-31T00:45:52;3.07;;;2.27;;
42282;SDS011;28237;47.954;21.730;2023-07-31T00:48:18;6.25;;;2.40;;
42282;SDS011;28237;47.954;21.730;2023-07-31T00:50:43;3.33;;;2.47;;
42282;SDS011;28237;47.954;21.730;2023-07-31T00:53:08;4.30;;;3.13;;
42282;SDS011;28237;47.954;21.730;2023-07-31T00:55:34;3.13;;;2.83;;
42282;SDS011;28237;47.954;21.730;2023-07-31T00:57:59;2.70;;;2.50;;
42282;SDS011;28237;47.954;21.730;2023-07-31T01:00:24;2.95;;;2.60;;
42282;SDS011;28237;47.954;21.730;2023-07-31T01:02:50;4.20;;;2.77;;
42282;SDS011;28237;47.954;21.730;2023-07-31T01:05:15;3.80;;;2.88;;
42282;SDS011;28237;47.954;21.730;2023-07-31T01:10:30;4.40;;;2.95;;
42282;SDS011;28237;47.954;21.730;2023-07-31T01:12:59;4.88;;;3.50;;
42282;SDS011;28237;47.954;21.730;2023-07-31T01:15:24;3.70;;;2.87;;
42282;SDS011;28237;47.954;21.730;2023-07-31T01:17:49;5.10;;;3.27;;
42282;SDS011;28237;47.954;21.730;2023-07-31T01:20:17;3.77;;;2.60;;
42282;SDS011;28237;47.954;21.730;2023-07-31T01:28:11;3.53;;;2.95;;
42282;SDS011;28237;47.954;21.730;2023-07-31T01:30:40;5.32;;;3.50;;
42282;SDS011;28237;47.954;21.730;2023-07-31T01:33:06;4.78;;;3.70;;
42282;SDS011;28237;47.954;21.730;2023-07-31T01:35:33;8.63;;;3.47;;
42282;SDS011;28237;47.954;21.730;2023-07-31T01:37:58;4.97;;;2.85;;
42282;SDS011;28237;47.954;21.730;2023-07-31T01:40:24;4.10;;;3.10;;
42282;SDS011;28237;47.954;21.730;2023-07-31T01:42:49;4.50;;;2.97;;
42282;SDS011;28237;47.954;21.730;2023-07-31T01:45:14;4.00;;;3.20;;
42282;SDS011;28237;47.954;21.730;2023-07-31T01:47:40;3.45;;;3.03;;
42282;SDS011;28237;47.954;21.730;2023-07-31T01:50:05;3.20;;;2.87;;
42282;SDS011;28237;47.954;21.730;2023-07-31T01:52:30;3.83;;;3.22;;
42282;SDS011;28237;47.954;21.730;2023-07-31T01:54:56;3.23;;;2.93;;
42282;SDS011;28237;47.954;21.730;2023-07-31T01:57:21;8.13;;;2.90;;
42282;SDS011;28237;47.954;21.730;2023-07-31T01:59:46;3.87;;;3.13;;
42282;SDS011;28237;47.954;21.730;2023-07-31T02:02:12;3.77;;;2.90;;
42282;SDS011;28237;47.954;21.730;2023-07-31T02:04:37;7.22;;;3.63;;
42282;SDS011;28237;47.954;21.730;2023-07-31T02:07:04;2.40;;;2.20;;
42282;SDS011;28237;47.954;21.730;2023-07-31T02:09:30;3.35;;;3.00;;
42282;SDS011;28237;47.954;21.730;2023-07-31T02:11:55;5.60;;;3.03;;
42282;SDS011;28237;47.954;21.730;2023-07-31T02:14:20;3.53;;;2.47;;
42282;SDS011;28237;47.954;21.730;2023-07-31T02:16:45;3.30;;;2.07;;
42282;SDS011;28237;47.954;21.730;2023-07-31T02:19:11;3.57;;;3.27;;
42282;SDS011;28237;47.954;21.730;2023-07-31T02:21:36;2.57;;;2.07;;
42282;SDS011;28237;47.954;21.730;2023-07-31T02:24:01;4.57;;;2.73;;
42282;SDS011;28237;47.954;21.730;2023-07-31T02:26:26;2.37;;;2.10;;
42282;SDS011;28237;47.954;21.730;2023-07-31T02:28:52;4.40;;;3.07;;
42282;SDS011;28237;47.954;21.730;2023-07-31T02:31:17;8.73;;;3.37;;
42282;SDS011;28237;47.954;21.730;2023-07-31T02:33:42;4.90;;;3.97;;
42282;SDS011;28237;47.954;21.730;2023-07-31T02:36:07;4.87;;;3.57;;
42282;SDS011;28237;47.954;21.730;2023-07-31T02:38:33;3.67;;;2.80;;
42282;SDS011;28237;47.954;21.730;2023-07-31T02:40:58;3.53;;;3.00;;
42282;SDS011;28237;47.954;21.730;2023-07-31T02:43:23;3.78;;;3.00;;
42282;SDS011;28237;47.954;21.730;2023-07-31T02:45:52;3.27;;;2.97;;
42282;SDS011;28237;47.954;21.730;2023-07-31T02:48:17;4.63;;;3.17;;
42282;SDS011;28237;47.954;21.730;2023-07-31T02:50:43;3.57;;;3.00;;
42282;SDS011;28237;47.954;21.730;2023-07-31T02:53:08;4.63;;;3.07;;
42282;SDS011;28237;47.954;21.730;2023-07-31T02:55:33;3.33;;;2.40;;
42282;SDS011;28237;47.954;21.730;2023-07-31T02:57:58;3.50;;;2.88;;
42282;SDS011;28237;47.954;21.730;2023-07-31T03:00:24;3.17;;;2.50;;
42282;SDS011;28237;47.954;21.730;2023-07-31T03:02:49;3.40;;;2.73;;
42282;SDS011;28237;47.954;21.730;2023-07-31T03:05:14;5.65;;;2.50;;
42282;SDS011;28237;47.954;21.730;2023-07-31T03:07:40;4.18;;;2.78;;
42282;SDS011;28237;47.954;21.730;2023-07-31T03:10:05;9.33;;;2.80;;
42282;SDS011;28237;47.954;21.730;2023-07-31T03:12:31;3.25;;;2.80;;
42282;SDS011;28237;47.954;21.730;2023-07-31T03:14:56;3.03;;;2.67;;
42282;SDS011;28237;47.954;21.730;2023-07-31T03:17:21;3.97;;;2.83;;
42282;SDS011;28237;47.954;21.730;2023-07-31T03:19:47;3.35;;;2.70;;
42282;SDS011;28237;47.954;21.730;2023-07-31T03:22:12;4.68;;;2.65;;
42282;SDS011;28237;47.954;21.730;2023-07-31T03:24:37;3.67;;;2.20;;
42282;SDS011;28237;47.954;21.730;2023-07-31T03:27:03;3.83;;;3.00;;
42282;SDS011;28237;47.954;21.730;2023-07-31T03:29:28;2.65;;;2.45;;
42282;SDS011;28237;47.954;21.730;2023-07-31T03:31:53;3.05;;;2.38;;
42282;SDS011;28237;47.954;21.730;2023-07-31T03:34:19;5.28;;;3.17;;
42282;SDS011;28237;47.954;21.730;2023-07-31T03:36:44;4.73;;;2.43;;
42282;SDS011;28237;47.954;21.730;2023-07-31T03:39:10;3.83;;;3.53;;
42282;SDS011;28237;47.954;21.730;2023-07-31T03:41:35;4.13;;;3.10;;
42282;SDS011;28237;47.954;21.730;2023-07-31T03:44:00;2.73;;;2.53;;
42282;SDS011;28237;47.954;21.730;2023-07-31T03:46:26;2.95;;;2.63;;
42282;SDS011;28237;47.954;21.730;2023-07-31T03:48:51;4.28;;;2.80;;
42282;SDS011;28237;47.954;21.730;2023-07-31T03:51:16;3.40;;;3.10;;
42282;SDS011;28237;47.954;21.730;2023-07-31T03:53:43;4.43;;;3.28;;
42282;SDS011;28237;47.954;21.730;2023-07-31T03:56:08;5.05;;;3.35;;
42282;SDS011;28237;47.954;21.730;2023-07-31T03:58:33;4.50;;;3.60;;
42282;SDS011;28237;47.954;21.730;2023-07-31T04:01:00;4.43;;;3.47;;
42282;SDS011;28237;47.954;21.730;2023-07-31T04:03:25;6.13;;;4.47;;
42282;SDS011;28237;47.954;21.730;2023-07-31T04:05:50;5.47;;;3.30;;
42282;SDS011;28237;47.954;21.730;2023-07-31T04:08:15;4.37;;;3.30;;
42282;SDS011;28237;47.954;21.730;2023-07-31T04:10:41;4.67;;;3.50;;
42282;SDS011;28237;47.954;21.730;2023-07-31T04:13:06;5.83;;;3.40;;
42282;SDS011;28237;47.954;21.730;2023-07-31T04:15:31;4.30;;;2.93;;
42282;SDS011;28237;47.954;21.730;2023-07-31T04:17:56;3.03;;;2.73;;
42282;SDS011;28237;47.954;21.730;2023-07-31T04:20:22;3.70;;;3.27;;
42282;SDS011;28237;47.954;21.730;2023-07-31T04:22:47;3.58;;;3.00;;
42282;SDS011;28237;47.954;21.730;2023-07-31T04:25:13;4.05;;;2.90;;
42282;SDS011;28237;47.954;21.730;2023-07-31T04:27:38;4.13;;;3.25;;
42282;SDS011;28237;47.954;21.730;2023-07-31T04:30:04;3.67;;;2.60;;
42282;SDS011;28237;47.954;21.730;2023-07-31T04:32:29;3.95;;;3.17;;
42282;SDS011;28237;47.954;21.730;2023-07-31T04:34:55;3.27;;;2.90;;
42282;SDS011;28237;47.954;21.730;2023-07-31T04:37:20;5.57;;;2.90;;
42282;SDS011;28237;47.954;21.730;2023-07-31T04:39:45;2.93;;;2.63;;
42282;SDS011;28237;47.954;21.730;2023-07-31T04:42:10;2.70;;;2.50;;
42282;SDS011;28237;47.954;21.730;2023-07-31T04:44:36;4.13;;;2.90;;
42282;SDS011;28237;47.954;21.730;2023-07-31T04:47:01;4.03;;;1.97;;
42282;SDS011;28237;47.954;21.730;2023-07-31T04:49:27;3.90;;;2.22;;
42282;SDS011;28237;47.954;21.730;2023-07-31T04:51:52;3.20;;;2.25;;
42282;SDS011;28237;47.954;21.730;2023-07-31T04:54:18;2.60;;;1.90;;
42282;SDS011;28237;47.954;21.730;2023-07-31T04:56:43;2.97;;;2.03;;
42282;SDS011;28237;47.954;21.730;2023-07-31T04:59:08;2.37;;;2.13;;
42282;SDS011;28237;47.954;21.730;2023-07-31T05:01:33;1.80;;;1.67;;
42282;SDS011;28237;47.954;21.730;2023-07-31T05:03:59;1.80;;;1.63;;
42282;SDS011;28237;47.954;21.730;2023-07-31T05:06:24;2.30;;;1.83;;
42282;SDS011;28237;47.954;21.730;2023-07-31T05:08:49;3.90;;;2.10;;
42282;SDS011;28237;47.954;21.730;2023-07-31T05:11:14;2.28;;;1.98;;
42282;SDS011;28237;47.954;21.730;2023-07-31T05:13:40;2.37;;;2.07;;
42282;SDS011;28237;47.954;21.730;2023-07-31T05:16:05;2.83;;;2.37;;
42282;SDS011;28237;47.954;21.730;2023-07-31T05:18:30;4.53;;;2.30;;
42282;SDS011;28237;47.954;21.730;2023-07-31T05:20:55;5.40;;;1.83;;
42282;SDS011;28237;47.954;21.730;2023-07-31T05:23:21;2.13;;;1.80;;
42282;SDS011;28237;47.954;21.730;2023-07-31T05:25:46;3.63;;;1.73;;
42282;SDS011;28237;47.954;21.730;2023-07-31T05:28:12;2.60;;;1.33;;
42282;SDS011;28237;47.954;21.730;2023-07-31T05:30:37;1.65;;;1.45;;
42282;SDS011;28237;47.954;21.730;2023-07-31T05:33:03;1.40;;;1.27;;
42282;SDS011;28237;47.954;21.730;2023-07-31T05:35:28;2.78;;;1.70;;
42282;SDS011;28237;47.954;21.730;2023-07-31T05:37:53;7.40;;;3.08;;
42282;SDS011;28237;47.954;21.730;2023-07-31T05:40:18;10.70;;;6.03;;
42282;SDS011;28237;47.954;21.730;2023-07-31T05:42:44;3.07;;;2.40;;
42282;SDS011;28237;47.954;21.730;2023-07-31T05:45:09;5.15;;;1.70;;
42282;SDS011;28237;47.954;21.730;2023-07-31T05:47:34;2.65;;;1.65;;
42282;SDS011;28237;47.954;21.730;2023-07-31T05:50:00;2.15;;;1.63;;
42282;SDS011;28237;47.954;21.730;2023-07-31T05:52:25;1.42;;;1.25;;
42282;SDS011;28237;47.954;21.730;2023-07-31T05:54:51;3.20;;;1.70;;
42282;SDS011;28237;47.954;21.730;2023-07-31T05:57:16;2.00;;;1.63;;
42282;SDS011;28237;47.954;21.730;2023-07-31T05:59:42;1.27;;;1.13;;
42282;SDS011;28237;47.954;21.730;2023-07-31T06:02:07;3.20;;;1.50;;
42282;SDS011;28237;47.954;21.730;2023-07-31T06:04:32;4.33;;;1.80;;
42282;SDS011;28237;47.954;21.730;2023-07-31T06:06:58;4.43;;;1.02;;
42282;SDS011;28237;47.954;21.730;2023-07-31T06:09:23;4.13;;;1.37;;
42282;SDS011;28237;47.954;21.730;2023-07-31T06:11:48;2.00;;;1.40;;
42282;SDS011;28237;47.954;21.730;2023-07-31T06:14:14;2.10;;;1.65;;
42282;SDS011;28237;47.954;21.730;2023-07-31T06:16:39;2.05;;;1.38;;
42282;SDS011;28237;47.954;21.730;2023-07-31T06:19:05;1.10;;;1.00;;
42282;SDS011;28237;47.954;21.730;2023-07-31T06:21:30;6.30;;;1.63;;
42282;SDS011;28237;47.954;21.730;2023-07-31T06:23:56;4.03;;;3.10;;
42282;SDS011;28237;47.954;21.730;2023-07-31T06:26:21;2.43;;;1.90;;
42282;SDS011;28237;47.954;21.730;2023-07-31T06:28:46;1.57;;;1.33;;
42282;SDS011;28237;47.954;21.730;2023-07-31T06:31:11;1.83;;;1.57;;
42282;SDS011;28237;47.954;21.730;2023-07-31T06:33:37;1.53;;;1.43;;
42282;SDS011;28237;47.954;21.730;2023-07-31T06:36:02;2.87;;;1.77;;
42282;SDS011;28237;47.954;21.730;2023-07-31T06:38:27;1.87;;;1.40;;
42282;SDS011;28237;47.954;21.730;2023-07-31T06:40:53;1.40;;;1.20;;
42282;SDS011;28237;47.954;21.730;2023-07-31T06:43:18;2.58;;;1.20;;
42282;SDS011;28237;47.954;21.730;2023-07-31T06:45:44;7.53;;;5.55;;
42282;SDS011;28237;47.954;21.730;2023-07-31T06:48:09;4.88;;;3.80;;
42282;SDS011;28237;47.954;21.730;2023-07-31T06:50:34;5.10;;;3.85;;
42282;SDS011;28237;47.954;21.730;2023-07-31T06:53:00;2.93;;;2.47;;
42282;SDS011;28237;47.954;21.730;2023-07-31T06:55:25;2.15;;;1.50;;
42282;SDS011;28237;47.954;21.730;2023-07-31T06:57:52;4.03;;;1.70;;
42282;SDS011;28237;47.954;21.730;2023-07-31T07:00:17;1.80;;;1.60;;
42282;SDS011;28237;47.954;21.730;2023-07-31T07:02:43;5.70;;;4.97;;
42282;SDS011;28237;47.954;21.730;2023-07-31T07:05:08;4.50;;;3.13;;
42282;SDS011;28237;47.954;21.730;2023-07-31T07:07:34;1.92;;;1.38;;
42282;SDS011;28237;47.954;21.730;2023-07-31T07:09:59;9.15;;;1.75;;
42282;SDS011;28237;47.954;21.730;2023-07-31T07:12:25;1.50;;;1.27;;
42282;SDS011;28237;47.954;21.730;2023-07-31T07:14:50;1.75;;;1.33;;
42282;SDS011;28237;47.954;21.730;2023-07-31T07:17:17;1.58;;;1.48;;
42282;SDS011;28237;47.954;21.730;2023-07-31T07:19:43;3.85;;;1.35;;
42282;SDS011;28237;47.954;21.730;2023-07-31T07:22:09;1.90;;;1.50;;
42282;SDS011;28237;47.954;21.730;2023-07-31T07:24:35;1.88;;;1.20;;
42282;SDS011;28237;47.954;21.730;2023-07-31T07:27:00;2.20;;;1.33;;
42282;SDS011;28237;47.954;21.730;2023-07-31T07:29:26;2.10;;;1.10;;
42282;SDS011;28237;47.954;21.730;2023-07-31T07:31:51;1.88;;;1.58;;
42282;SDS011;28237;47.954;21.730;2023-07-31T07:34:16;6.17;;;2.13;;
42282;SDS011;28237;47.954;21.730;2023-07-31T07:36:42;3.10;;;1.50;;
42282;SDS011;28237;47.954;21.730;2023-07-31T07:39:08;1.37;;;1.27;;
42282;SDS011;28237;47.954;21.730;2023-07-31T07:41:33;2.13;;;1.38;;
42282;SDS011;28237;47.954;21.730;2023-07-31T07:43:59;2.80;;;1.43;;
42282;SDS011;28237;47.954;21.730;2023-07-31T07:46:24;1.70;;;1.60;;
42282;SDS011;28237;47.954;21.730;2023-07-31T07:48:49;4.13;;;3.10;;
42282;SDS011;28237;47.954;21.730;2023-07-31T07:51:14;3.97;;;2.83;;
42282;SDS011;28237;47.954;21.730;2023-07-31T07:53:40;3.67;;;2.00;;
42282;SDS011;28237;47.954;21.730;2023-07-31T07:56:05;3.57;;;1.60;;
42282;SDS011;28237;47.954;21.730;2023-07-31T07:58:30;2.83;;;1.00;;
42282;SDS011;28237;47.954;21.730;2023-07-31T08:00:55;2.73;;;1.30;;
42282;SDS011;28237;47.954;21.730;2023-07-31T08:03:21;2.50;;;1.60;;
42282;SDS011;28237;47.954;21.730;2023-07-31T08:05:46;1.47;;;1.03;;
42282;SDS011;28237;47.954;21.730;2023-07-31T08:08:14;4.03;;;1.17;;
42282;SDS011;28237;47.954;21.730;2023-07-31T08:10:39;3.30;;;1.30;;
42282;SDS011;28237;47.954;21.730;2023-07-31T08:13:05;3.87;;;1.13;;
42282;SDS011;28237;47.954;21.730;2023-07-31T08:15:30;2.60;;;0.87;;
42282;SDS011;28237;47.954;21.730;2023-07-31T08:17:55;3.40;;;1.17;;
42282;SDS011;28237;47.954;21.730;2023-07-31T08:20:20;1.60;;;1.00;;
42282;SDS011;28237;47.954;21.730;2023-07-31T08:22:46;0.90;;;0.70;;
42282;SDS011;28237;47.954;21.730;2023-07-31T08:25:11;0.93;;;0.80;;
42282;SDS011;28237;47.954;21.730;2023-07-31T08:27:36;1.47;;;0.90;;
42282;SDS011;28237;47.954;21.730;2023-07-31T08:30:02;1.77;;;0.90;;
42282;SDS011;28237;47.954;21.730;2023-07-31T08:32:27;3.33;;;0.98;;
42282;SDS011;28237;47.954;21.730;2023-07-31T08:34:53;1.88;;;0.70;;
42282;SDS011;28237;47.954;21.730;2023-07-31T08:37:18;2.03;;;0.65;;
42282;SDS011;28237;47.954;21.730;2023-07-31T08:39:43;5.13;;;0.83;;
42282;SDS011;28237;47.954;21.730;2023-07-31T08:42:09;1.40;;;0.80;;
42282;SDS011;28237;47.954;21.730;2023-07-31T08:44:34;0.82;;;0.82;;
42282;SDS011;28237;47.954;21.730;2023-07-31T08:47:00;1.83;;;0.98;;
42282;SDS011;28237;47.954;21.730;2023-07-31T08:49:26;2.25;;;0.88;;
42282;SDS011;28237;47.954;21.730;2023-07-31T08:51:52;1.10;;;0.77;;
42282;SDS011;28237;47.954;21.730;2023-07-31T08:54:17;1.20;;;0.85;;
42282;SDS011;28237;47.954;21.730;2023-07-31T08:56:43;1.33;;;1.00;;
42282;SDS011;28237;47.954;21.730;2023-07-31T08:59:08;1.33;;;1.08;;
42282;SDS011;28237;47.954;21.730;2023-07-31T09:01:35;2.03;;;1.10;;
42282;SDS011;28237;47.954;21.730;2023-07-31T09:04:01;4.00;;;0.88;;
42282;SDS011;28237;47.954;21.730;2023-07-31T09:06:27;1.50;;;0.85;;
42282;SDS011;28237;47.954;21.730;2023-07-31T09:08:53;2.42;;;0.75;;
42282;SDS011;28237;47.954;21.730;2023-07-31T09:11:18;3.42;;;0.90;;
42282;SDS011;28237;47.954;21.730;2023-07-31T09:13:46;1.02;;;0.93;;
42282;SDS011;28237;47.954;21.730;2023-07-31T09:16:11;1.00;;;0.93;;
42282;SDS011;28237;47.954;21.730;2023-07-31T09:18:55;1.30;;;0.90;;
42282;SDS011;28237;47.954;21.730;2023-07-31T09:23:47;0.80;;;0.77;;
42282;SDS011;28237;47.954;21.730;2023-07-31T09:26:28;1.20;;;0.83;;
42282;SDS011;28237;47.954;21.730;2023-07-31T09:28:53;1.42;;;0.80;;
42282;SDS011;28237;47.954;21.730;2023-07-31T09:31:31;1.13;;;0.80;;
42282;SDS011;28237;47.954;21.730;2023-07-31T09:33:56;1.45;;;0.75;;
42282;SDS011;28237;47.954;21.730;2023-07-31T09:36:21;1.30;;;0.98;;
42282;SDS011;28237;47.954;21.730;2023-07-31T09:38:46;1.00;;;0.90;;
42282;SDS011;28237;47.954;21.730;2023-07-31T09:41:12;3.13;;;0.93;;
42282;SDS011;28237;47.954;21.730;2023-07-31T09:43:38;2.75;;;0.90;;
42282;SDS011;28237;47.954;21.730;2023-07-31T09:46:03;1.60;;;1.07;;
42282;SDS011;28237;47.954;21.730;2023-07-31T09:48:28;0.90;;;0.90;;
42282;SDS011;28237;47.954;21.730;2023-07-31T09:50:55;1.15;;;0.73;;
42282;SDS011;28237;47.954;21.730;2023-07-31T09:53:27;0.95;;;0.70;;
42282;SDS011;28237;47.954;21.730;2023-07-31T09:55:53;1.88;;;1.30;;
42282;SDS011;28237;47.954;21.730;2023-07-31T09:58:19;1.20;;;0.70;;
42282;SDS011;28237;47.954;21.730;2023-07-31T10:00:44;0.90;;;0.60;;
42282;SDS011;28237;47.954;21.730;2023-07-31T10:03:10;1.00;;;0.90;;
42282;SDS011;28237;47.954;21.730;2023-07-31T10:06:08;1.52;;;0.68;;
42282;SDS011;28237;47.954;21.730;2023-07-31T10:08:27;1.05;;;0.80;;
42282;SDS011;28237;47.954;21.730;2023-07-31T10:10:58;0.82;;;0.70;;
42282;SDS011;28237;47.954;21.730;2023-07-31T10:13:23;1.05;;;0.65;;
42282;SDS011;28237;47.954;21.730;2023-07-31T10:15:49;2.30;;;0.95;;
42282;SDS011;28237;47.954;21.730;2023-07-31T10:18:15;1.58;;;0.70;;
42282;SDS011;28237;47.954;21.730;2023-07-31T10:20:41;1.15;;;0.90;;
42282;SDS011;28237;47.954;21.730;2023-07-31T10:23:07;1.90;;;0.90;;
42282;SDS011;28237;47.954;21.730;2023-07-31T10:25:33;0.93;;;0.70;;
42282;SDS011;28237;47.954;21.730;2023-07-31T10:27:59;1.40;;;0.88;;
42282;SDS011;28237;47.954;21.730;2023-07-31T10:30:26;1.13;;;0.77;;
42282;SDS011;28237;47.954;21.730;2023-07-31T10:32:52;1.20;;;0.70;;
42282;SDS011;28237;47.954;21.730;2023-07-31T10:35:18;1.20;;;0.95;;
42282;SDS011;28237;47.954;21.730;2023-07-31T10:37:43;1.67;;;0.90;;
42282;SDS011;28237;47.954;21.730;2023-07-31T10:40:18;2.97;;;1.20;;
42282;SDS011;28237;47.954;21.730;2023-07-31T10:42:46;0.77;;;0.55;;
42282;SDS011;28237;47.954;21.730;2023-07-31T10:45:12;0.65;;;0.65;;
42282;SDS011;28237;47.954;21.730;2023-07-31T10:47:39;2.65;;;0.70;;
42282;SDS011;28237;47.954;21.730;2023-07-31T10:50:19;0.63;;;0.55;;
42282;SDS011;28237;47.954;21.730;2023-07-31T10:52:48;0.95;;;0.90;;
42282;SDS011;28237;47.954;21.730;2023-07-31T10:55:35;2.03;;;0.75;;
42282;SDS011;28237;47.954;21.730;2023-07-31T10:58:10;0.47;;;0.40;;
42282;SDS011;28237;47.954;21.730;2023-07-31T11:00:39;0.85;;;0.85;;
42282;SDS011;28237;47.954;21.730;2023-07-31T11:10:45;0.95;;;0.60;;
42282;SDS011;28237;47.954;21.730;2023-07-31T11:13:10;0.82;;;0.63;;
42282;SDS011;28237;47.954;21.730;2023-07-31T11:15:36;0.98;;;0.80;;
42282;SDS011;28237;47.954;21.730;2023-07-31T11:18:01;0.70;;;0.70;;
42282;SDS011;28237;47.954;21.730;2023-07-31T11:20:35;2.28;;;0.70;;
42282;SDS011;28237;47.954;21.730;2023-07-31T11:23:01;1.23;;;0.68;;
42282;SDS011;28237;47.954;21.730;2023-07-31T11:25:30;1.02;;;0.90;;
42282;SDS011;28237;47.954;21.730;2023-07-31T11:27:56;1.83;;;0.77;;
42282;SDS011;28237;47.954;21.730;2023-07-31T11:30:22;1.00;;;0.80;;
42282;SDS011;28237;47.954;21.730;2023-07-31T11:32:48;0.98;;;0.50;;
42282;SDS011;28237;47.954;21.730;2023-07-31T11:35:14;1.38;;;0.45;;
42282;SDS011;28237;47.954;21.730;2023-07-31T11:37:40;2.40;;;0.70;;
42282;SDS011;28237;47.954;21.730;2023-07-31T11:40:05;1.08;;;0.98;;
42282;SDS011;28237;47.954;21.730;2023-07-31T11:42:31;0.95;;;0.40;;
42282;SDS011;28237;47.954;21.730;2023-07-31T11:44:56;0.67;;;0.50;;
42282;SDS011;28237;47.954;21.730;2023-07-31T11:47:21;0.70;;;0.47;;
42282;SDS011;28237;47.954;21.730;2023-07-31T11:49:46;0.90;;;0.60;;
42282;SDS011;28237;47.954;21.730;2023-07-31T11:52:13;2.08;;;0.73;;
42282;SDS011;28237;47.954;21.730;2023-07-31T11:54:39;4.82;;;4.43;;
42282;SDS011;28237;47.954;21.730;2023-07-31T11:57:05;4.60;;;1.20;;
42282;SDS011;28237;47.954;21.730;2023-07-31T11:59:31;1.00;;;0.90;;
42282;SDS011;28237;47.954;21.730;2023-07-31T12:01:56;1.10;;;1.00;;
42282;SDS011;28237;47.954;21.730;2023-07-31T12:04:22;0.70;;;0.63;;
42282;SDS011;28237;47.954;21.730;2023-07-31T12:06:48;0.82;;;0.77;;
42282;SDS011;28237;47.954;21.730;2023-07-31T12:09:15;3.13;;;0.88;;
42282;SDS011;28237;47.954;21.730;2023-07-31T12:11:44;1.05;;;0.65;;
42282;SDS011;28237;47.954;21.730;2023-07-31T12:14:22;2.15;;;0.70;;
42282;SDS011;28237;47.954;21.730;2023-07-31T12:16:52;1.38;;;0.70;;
42282;SDS011;28237;47.954;21.730;2023-07-31T12:19:18;0.90;;;0.60;;
42282;SDS011;28237;47.954;21.730;2023-07-31T12:21:44;3.17;;;0.80;;
42282;SDS011;28237;47.954;21.730;2023-07-31T12:24:09;0.90;;;0.40;;
42282;SDS011;28237;47.954;21.730;2023-07-31T12:26:35;1.20;;;0.45;;
42282;SDS011;28237;47.954;21.730;2023-07-31T12:29:00;0.77;;;0.50;;
42282;SDS011;28237;47.954;21.730;2023-07-31T12:31:27;0.77;;;0.70;;
42282;SDS011;28237;47.954;21.730;2023-07-31T12:33:52;0.93;;;0.60;;
42282;SDS011;28237;47.954;21.730;2023-07-31T12:36:22;0.90;;;0.63;;
42282;SDS011;28237;47.954;21.730;2023-07-31T12:38:47;0.75;;;0.60;;
42282;SDS011;28237;47.954;21.730;2023-07-31T12:41:13;1.30;;;0.60;;
42282;SDS011;28237;47.954;21.730;2023-07-31T12:43:39;3.97;;;1.60;;
42282;SDS011;28237;47.954;21.730;2023-07-31T12:46:04;1.48;;;1.00;;
42282;SDS011;28237;47.954;21.730;2023-07-31T12:48:30;1.15;;;0.50;;
42282;SDS011;28237;47.954;21.730;2023-07-31T12:50:56;0.60;;;0.55;;
42282;SDS011;28237;47.954;21.730;2023-07-31T12:53:21;1.10;;;0.70;;
42282;SDS011;28237;47.954;21.730;2023-07-31T12:55:46;1.00;;;0.70;;
42282;SDS011;28237;47.954;21.730;2023-07-31T12:58:12;0.80;;;0.25;;
42282;SDS011;28237;47.954;21.730;2023-07-31T13:00:37;0.73;;;0.60;;
42282;SDS011;28237;47.954;21.730;2023-07-31T13:03:03;0.60;;;0.43;;
42282;SDS011;28237;47.954;21.730;2023-07-31T13:05:28;0.60;;;0.38;;
42282;SDS011;28237;47.954;21.730;2023-07-31T13:07:53;1.63;;;0.60;;
42282;SDS011;28237;47.954;21.730;2023-07-31T13:10:19;1.50;;;0.50;;
42282;SDS011;28237;47.954;21.730;2023-07-31T13:12:44;0.52;;;0.40;;
42282;SDS011;28237;47.954;21.730;2023-07-31T13:15:11;2.33;;;0.53;;
42282;SDS011;28237;47.954;21.730;2023-07-31T13:17:36;1.38;;;0.40;;
42282;SDS011;28237;47.954;21.730;2023-07-31T13:20:02;0.60;;;0.38;;
42282;SDS011;28237;47.954;21.730;2023-07-31T13:22:28;2.58;;;0.52;;
42282;SDS011;28237;47.954;21.730;2023-07-31T13:24:53;1.00;;;0.70;;
42282;SDS011;28237;47.954;21.730;2023-07-31T13:27:19;0.87;;;0.50;;
42282;SDS011;28237;47.954;21.730;2023-07-31T13:29:46;1.85;;;0.60;;
42282;SDS011;28237;47.954;21.730;2023-07-31T13:32:12;1.98;;;0.65;;
42282;SDS011;28237;47.954;21.730;2023-07-31T13:34:37;0.80;;;0.40;;
42282;SDS011;28237;47.954;21.730;2023-07-31T13:37:03;0.70;;;0.60;;
42282;SDS011;28237;47.954;21.730;2023-07-31T13:39:28;1.88;;;0.70;;
42282;SDS011;28237;47.954;21.730;2023-07-31T13:41:53;0.93;;;0.77;;
42282;SDS011;28237;47.954;21.730;2023-07-31T13:44:19;1.60;;;0.33;;
42282;SDS011;28237;47.954;21.730;2023-07-31T13:46:44;1.67;;;0.70;;
42282;SDS011;28237;47.954;21.730;2023-07-31T13:49:09;0.93;;;0.60;;
42282;SDS011;28237;47.954;21.730;2023-07-31T13:51:37;0.40;;;0.30;;
42282;SDS011;28237;47.954;21.730;2023-07-31T13:54:04;1.00;;;0.60;;
42282;SDS011;28237;47.954;21.730;2023-07-31T13:56:29;0.80;;;0.67;;
42282;SDS011;28237;47.954;21.730;2023-07-31T13:58:55;0.50;;;0.40;;
42282;SDS011;28237;47.954;21.730;2023-07-31T14:01:20;0.90;;;0.60;;
42282;SDS011;28237;47.954;21.730;2023-07-31T14:03:45;5.30;;;0.83;;
42282;SDS011;28237;47.954;21.730;2023-07-31T14:06:10;3.28;;;0.60;;
42282;SDS011;28237;47.954;21.730;2023-07-31T14:08:36;0.52;;;0.38;;
42282;SDS011;28237;47.954;21.730;2023-07-31T14:11:01;0.55;;;0.25;;
42282;SDS011;28237;47.954;21.730;2023-07-31T14:13:27;0.60;;;0.43;;
42282;SDS011;28237;47.954;21.730;2023-07-31T14:15:52;0.60;;;0.50;;
42282;SDS011;28237;47.954;21.730;2023-07-31T14:18:18;1.23;;;0.68;;
42282;SDS011;28237;47.954;21.730;2023-07-31T14:20:43;1.95;;;0.50;;
42282;SDS011;28237;47.954;21.730;2023-07-31T14:23:09;0.68;;;0.68;;
42282;SDS011;28237;47.954;21.730;2023-07-31T14:25:34;0.73;;;0.43;;
42282;SDS011;28237;47.954;21.730;2023-07-31T14:27:59;0.67;;;0.33;;
42282;SDS011;28237;47.954;21.730;2023-07-31T14:30:25;0.68;;;0.30;;
42282;SDS011;28237;47.954;21.730;2023-07-31T14:32:50;0.40;;;0.20;;
42282;SDS011;28237;47.954;21.730;2023-07-31T14:35:15;0.50;;;0.23;;
42282;SDS011;28237;47.954;21.730;2023-07-31T14:37:41;1.03;;;0.40;;
42282;SDS011;28237;47.954;21.730;2023-07-31T14:40:07;5.80;;;0.50;;
42282;SDS011;28237;47.954;21.730;2023-07-31T14:42:34;0.82;;;0.40;;
42282;SDS011;28237;47.954;21.730;2023-07-31T14:44:59;2.15;;;0.50;;